createdAt,value
2016-02-26T00:00:18.372Z,0
2016-02-26T00:01:18.374Z,0
2016-02-26T00:02:18.363Z,0
2016-02-26T00:03:18.349Z,0
2016-02-26T00:04:18.368Z,0
2016-02-26T00:05:18.339Z,0
2016-02-26T00:06:18.342Z,0
2016-02-26T00:07:18.360Z,0
2016-02-26T00:08:18.347Z,0
2016-02-26T00:09:18.318Z,0
2016-02-26T00:10:18.352Z,0
2016-02-26T00:11:18.386Z,0
2016-02-26T00:12:18.311Z,0
2016-02-26T00:13:18.298Z,0
2016-02-26T00:14:18.316Z,0
2016-02-26T00:15:18.273Z,0
2016-02-26T00:16:18.322Z,0
2016-02-26T00:17:18.278Z,0
2016-02-26T00:18:18.264Z,0
2016-02-26T00:19:18.267Z,0
2016-02-26T00:20:18.270Z,0
2016-02-26T00:21:18.320Z,0
2016-02-26T00:22:18.275Z,0
2016-02-26T00:23:18.294Z,0
2016-02-26T00:24:18.249Z,0
2016-02-26T00:25:18.268Z,0
2016-02-26T00:26:18.224Z,0
2016-02-26T00:27:18.288Z,0
2016-02-26T00:28:18.245Z,0
2016-02-26T00:29:18.263Z,0
2016-02-26T00:30:18.218Z,0
2016-02-26T00:31:18.221Z,0
2016-02-26T00:32:18.208Z,0
2016-02-26T00:33:18.211Z,0
2016-02-26T00:34:18.198Z,0
2016-02-26T00:35:18.185Z,0
2016-02-26T00:36:18.188Z,0
2016-02-26T00:37:18.175Z,0
2016-02-26T00:38:18.178Z,0
2016-02-26T00:39:18.180Z,0
2016-02-26T00:40:18.183Z,0
2016-02-26T00:41:18.170Z,0
2016-02-26T00:42:18.204Z,0
2016-02-26T00:43:18.175Z,0
2016-02-26T00:44:18.147Z,0
2016-02-26T00:45:18.181Z,0
2016-02-26T00:46:18.137Z,0
2016-02-26T00:47:18.139Z,0
2016-02-26T00:48:18.111Z,0
2016-02-26T00:49:18.113Z,0
2016-02-26T00:50:17.381Z,0
2016-02-26T00:51:18.119Z,0
2016-02-26T00:52:18.122Z,0
2016-02-26T00:53:18.094Z,0
2016-02-26T00:54:18.111Z,0
2016-02-26T00:55:18.083Z,0
2016-02-26T00:56:18.147Z,0
2016-02-26T00:57:18.072Z,0
2016-02-26T00:58:18.060Z,0
2016-02-26T00:59:18.063Z,0
2016-02-26T01:00:18.097Z,0
2016-02-26T01:01:18.083Z,0
2016-02-26T01:02:18.054Z,0
2016-02-26T01:03:18.057Z,0
2016-02-26T01:04:18.045Z,0
2016-02-26T01:05:18.032Z,0
2016-02-26T01:06:18.050Z,0
2016-02-26T01:07:18.021Z,0
2016-02-26T01:08:18.024Z,0
2016-02-26T01:09:18.026Z,0
2016-02-26T01:10:17.998Z,0
2016-02-26T01:11:18.001Z,0
2016-02-26T01:12:18.008Z,0
2016-02-26T01:13:17.967Z,0
2016-02-26T01:14:17.989Z,0
2016-02-26T01:15:17.933Z,0
2016-02-26T01:16:17.954Z,0
2016-02-26T01:17:17.921Z,0
2016-02-26T01:18:17.903Z,0
2016-02-26T01:19:17.886Z,0
2016-02-26T01:20:17.916Z,0
2016-02-26T01:21:17.882Z,0
2016-02-26T01:22:17.853Z,0
2016-02-26T01:23:17.854Z,0
2016-02-26T01:24:17.855Z,0
2016-02-26T01:25:17.841Z,0
2016-02-26T01:26:17.826Z,0
2016-02-26T01:27:17.812Z,0
2016-02-26T01:28:17.814Z,0
2016-02-26T01:29:17.816Z,0
2016-02-26T01:30:17.803Z,0
2016-02-26T01:31:17.789Z,0
2016-02-26T01:32:17.791Z,0
2016-02-26T01:33:17.778Z,0
2016-02-26T01:34:17.765Z,0
2016-02-26T01:35:17.784Z,0
2016-02-26T01:36:17.771Z,0
2016-02-26T01:37:17.774Z,0
2016-02-26T01:38:17.807Z,0
2016-02-26T01:39:17.826Z,0
2016-02-26T01:40:17.735Z,0
2016-02-26T01:41:17.738Z,0
2016-02-26T01:42:17.740Z,0
2016-02-26T01:43:17.743Z,0
2016-02-26T01:44:17.558Z,0
2016-02-26T01:45:17.701Z,0
2016-02-26T01:46:17.720Z,0
2016-02-26T01:47:17.723Z,0
2016-02-26T01:48:17.726Z,0
2016-02-26T01:49:17.696Z,0
2016-02-26T01:50:17.699Z,0
2016-02-26T01:51:17.701Z,0
2016-02-26T01:52:17.673Z,0
2016-02-26T01:53:17.707Z,0
2016-02-26T01:54:17.664Z,0
2016-02-26T01:55:17.697Z,0
2016-02-26T01:56:17.731Z,0
2016-02-26T01:57:17.656Z,0
2016-02-26T01:58:17.675Z,0
2016-02-26T01:59:17.661Z,0
2016-02-26T02:00:17.633Z,0
2016-02-26T02:01:17.682Z,0
2016-02-26T02:02:17.622Z,0
2016-02-26T02:03:17.625Z,0
2016-02-26T02:04:17.611Z,0
2016-02-26T02:05:17.599Z,0
2016-02-26T02:06:17.617Z,0
2016-02-26T02:07:17.589Z,0
2016-02-26T02:08:17.591Z,0
2016-02-26T02:09:17.610Z,0
2016-02-26T02:10:17.581Z,0
2016-02-26T02:11:17.569Z,0
2016-02-26T02:12:17.571Z,0
2016-02-26T02:13:17.574Z,0
2016-02-26T02:14:17.545Z,0
2016-02-26T02:15:17.548Z,0
2016-02-26T02:16:17.535Z,0
2016-02-26T02:17:17.537Z,0
2016-02-26T02:18:17.540Z,0
2016-02-26T02:19:17.527Z,0
2016-02-26T02:20:17.529Z,0
2016-02-26T02:21:17.517Z,0
2016-02-26T02:22:17.535Z,0
2016-02-26T02:23:17.522Z,0
2016-02-26T02:24:17.525Z,0
2016-02-26T02:25:17.512Z,0
2016-02-26T02:26:17.515Z,0
2016-02-26T02:27:17.486Z,0
2016-02-26T02:28:17.473Z,0
2016-02-26T02:29:17.476Z,0
2016-02-26T02:30:17.464Z,0
2016-02-26T02:31:17.450Z,0
2016-02-26T02:32:17.453Z,0
2016-02-26T02:33:17.455Z,0
2016-02-26T02:34:17.475Z,0
2016-02-26T02:35:17.445Z,0
2016-02-26T02:36:17.448Z,0
2016-02-26T02:37:17.435Z,0
2016-02-26T02:38:17.438Z,0
2016-02-26T02:39:17.424Z,0
2016-02-26T02:40:17.412Z,0
2016-02-26T02:41:17.415Z,0
2016-02-26T02:42:17.386Z,0
2016-02-26T02:43:17.421Z,0
2016-02-26T02:44:17.376Z,0
2016-02-26T02:45:17.378Z,0
2016-02-26T02:46:17.396Z,0
2016-02-26T02:47:17.385Z,0
2016-02-26T02:48:17.402Z,0
2016-02-26T02:49:17.358Z,0
2016-02-26T02:50:17.345Z,0
2016-02-26T02:51:16.613Z,0
2016-02-26T02:52:17.319Z,0
2016-02-26T02:53:17.353Z,0
2016-02-26T02:54:17.356Z,0
2016-02-26T02:55:17.343Z,0
2016-02-26T02:56:17.362Z,0
2016-02-26T02:57:17.317Z,0
2016-02-26T02:58:17.319Z,0
2016-02-26T02:59:17.322Z,0
2016-02-26T03:00:17.310Z,0
2016-02-26T03:01:17.281Z,0
2016-02-26T03:02:17.284Z,0
2016-02-26T03:03:17.286Z,0
2016-02-26T03:04:17.273Z,0
2016-02-26T03:05:17.266Z,0
2016-02-26T03:06:17.377Z,0
2016-02-26T03:07:17.114Z,0
2016-02-26T03:08:17.258Z,0
2016-02-26T03:09:17.261Z,0
2016-02-26T03:10:17.233Z,0
2016-02-26T03:11:17.235Z,0
2016-02-26T03:12:17.223Z,0
2016-02-26T03:13:17.241Z,0
2016-02-26T03:14:17.228Z,0
2016-02-26T03:15:17.231Z,0
2016-02-26T03:16:17.264Z,0
2016-02-26T03:17:17.205Z,0
2016-02-26T03:18:17.191Z,0
2016-02-26T03:19:17.194Z,0
2016-02-26T03:20:17.182Z,0
2016-02-26T03:21:17.216Z,0
2016-02-26T03:22:17.171Z,0
2016-02-26T03:23:17.190Z,0
2016-02-26T03:24:17.160Z,0
2016-02-26T03:25:17.196Z,0
2016-02-26T03:26:17.151Z,0
2016-02-26T03:27:17.154Z,0
2016-02-26T03:28:17.171Z,0
2016-02-26T03:29:17.190Z,0
2016-02-26T03:30:17.131Z,0
2016-02-26T03:31:17.149Z,0
2016-02-26T03:32:17.136Z,0
2016-02-26T03:33:17.107Z,0
2016-02-26T03:34:17.109Z,0
2016-02-26T03:35:17.097Z,0
2016-02-26T03:36:17.115Z,0
2016-02-26T03:37:17.102Z,0
2016-02-26T03:38:17.106Z,0
2016-02-26T03:39:17.092Z,0
2016-02-26T03:40:17.095Z,0
2016-02-26T03:41:17.066Z,0
2016-02-26T03:42:17.131Z,0
2016-02-26T03:43:17.087Z,0
2016-02-26T03:44:17.075Z,0
2016-02-26T03:45:17.046Z,0
2016-02-26T03:46:17.064Z,0
2016-02-26T03:47:17.035Z,0
2016-02-26T03:48:17.054Z,0
2016-02-26T03:49:17.025Z,0
2016-02-26T03:50:17.074Z,0
2016-02-26T03:51:17.031Z,0
2016-02-26T03:52:17.033Z,0
2016-02-26T03:53:17.004Z,0
2016-02-26T03:54:17.007Z,0
2016-02-26T03:55:16.291Z,0
2016-02-26T03:56:17.044Z,0
2016-02-26T03:57:16.985Z,0
2016-02-26T03:58:17.018Z,0
2016-02-26T03:59:16.974Z,0
2016-02-26T04:00:16.992Z,0
2016-02-26T04:01:18.198Z,0
2016-02-26T04:02:16.967Z,0
2016-02-26T04:03:16.985Z,0
2016-02-26T04:04:16.940Z,0
2016-02-26T04:05:16.959Z,0
2016-02-26T04:06:16.977Z,0
2016-02-26T04:07:16.948Z,0
2016-02-26T04:08:16.264Z,0
2016-02-26T04:09:16.938Z,0
2016-02-26T04:10:16.941Z,0
2016-02-26T04:11:16.959Z,0
2016-02-26T04:12:16.899Z,0
2016-02-26T04:13:16.964Z,0
2016-02-26T04:14:16.890Z,0
2016-02-26T04:15:16.939Z,0
2016-02-26T04:16:16.926Z,0
2016-02-26T04:17:16.772Z,0
2016-02-26T04:18:16.885Z,0
2016-02-26T04:19:16.902Z,0
2016-02-26T04:20:16.874Z,0
2016-02-26T04:21:18.705Z,0
2016-02-26T04:22:16.864Z,0
2016-02-26T04:23:16.976Z,0
2016-02-26T04:24:17.213Z,0
2016-02-26T04:25:16.871Z,0
2016-02-26T04:26:17.140Z,0
2016-02-26T04:27:16.847Z,0
2016-02-26T04:28:16.880Z,0
2016-02-26T04:29:16.696Z,0
2016-02-26T04:30:16.901Z,0
2016-02-26T04:31:16.826Z,0
2016-02-26T04:32:16.843Z,0
2016-02-26T04:33:16.879Z,0
2016-02-26T04:34:37.477Z,0
2016-02-26T04:35:16.806Z,0
2016-02-26T04:36:16.808Z,0
2016-02-26T04:37:16.811Z,0
2016-02-26T04:38:16.797Z,0
2016-02-26T04:39:16.800Z,0
2016-02-26T04:40:16.773Z,0
2016-02-26T04:41:16.790Z,0
2016-02-26T04:42:16.761Z,0
2016-02-26T04:43:16.811Z,0
2016-02-26T04:44:16.798Z,0
2016-02-26T04:45:16.786Z,0
2016-02-26T04:46:16.757Z,0
2016-02-26T04:47:17.291Z,0
2016-02-26T04:48:16.762Z,0
2016-02-26T04:49:16.796Z,0
2016-02-26T04:50:16.736Z,0
2016-02-26T04:51:16.769Z,0
2016-02-26T04:52:17.194Z,0
2016-02-26T04:53:16.745Z,0
2016-02-26T04:54:16.919Z,0
2016-02-26T04:55:19.515Z,0
2016-02-26T04:56:16.752Z,0
2016-02-26T04:57:16.723Z,0
2016-02-26T04:58:16.758Z,0
2016-02-26T04:59:16.777Z,0
2016-02-26T05:00:17.544Z,0
2016-02-26T05:01:16.032Z,0
2016-02-26T05:02:16.674Z,0
2016-02-26T05:03:16.724Z,0
2016-02-26T05:04:16.711Z,0
2016-02-26T05:05:16.720Z,0
2016-02-26T05:06:16.707Z,0
2016-02-26T05:07:16.679Z,0
2016-02-26T05:08:16.649Z,0
2016-02-26T05:09:16.652Z,0
2016-02-26T05:10:16.671Z,0
2016-02-26T05:11:16.674Z,0
2016-02-26T05:12:16.629Z,0
2016-02-26T05:13:16.507Z,0
2016-02-26T05:14:16.635Z,0
2016-02-26T05:15:16.637Z,0
2016-02-26T05:16:16.640Z,0
2016-02-26T05:17:16.470Z,0
2016-02-26T05:18:16.615Z,0
2016-02-26T05:19:16.617Z,0
2016-02-26T05:20:16.464Z,0
2016-02-26T05:21:16.606Z,0
2016-02-26T05:22:16.594Z,0
2016-02-26T05:23:16.612Z,0
2016-02-26T05:24:16.724Z,0
2016-02-26T05:25:16.617Z,0
2016-02-26T05:26:16.417Z,0
2016-02-26T05:27:16.576Z,0
2016-02-26T05:28:16.485Z,0
2016-02-26T05:29:16.581Z,0
2016-02-26T05:30:16.552Z,0
2016-02-26T05:31:16.556Z,0
2016-02-26T05:32:16.558Z,0
2016-02-26T05:33:16.560Z,0
2016-02-26T05:34:16.407Z,0
2016-02-26T05:35:16.566Z,0
2016-02-26T05:36:16.554Z,0
2016-02-26T05:37:16.525Z,0
2016-02-26T05:38:16.527Z,0
2016-02-26T05:39:16.546Z,0
2016-02-26T05:40:16.532Z,0
2016-02-26T05:41:16.535Z,0
2016-02-26T05:42:16.522Z,0
2016-02-26T05:43:16.540Z,0
2016-02-26T05:44:16.543Z,0
2016-02-26T05:45:16.499Z,0
2016-02-26T05:46:16.190Z,0
2016-02-26T05:47:16.489Z,0
2016-02-26T05:48:16.507Z,0
2016-02-26T05:49:16.510Z,0
2016-02-26T05:50:16.498Z,0
2016-02-26T05:51:16.484Z,0
2016-02-26T05:52:16.472Z,0
2016-02-26T05:53:16.490Z,0
2016-02-26T05:54:16.493Z,0
2016-02-26T05:55:16.464Z,0
2016-02-26T05:56:16.497Z,0
2016-02-26T05:57:16.595Z,0
2016-02-26T05:58:16.472Z,5
2016-02-26T05:59:16.443Z,5
2016-02-26T06:00:16.446Z,5
2016-02-26T06:01:16.433Z,5
2016-02-26T06:02:16.436Z,5
2016-02-26T06:03:16.408Z,5
2016-02-26T06:04:16.441Z,5
2016-02-26T06:05:16.444Z,5
2016-02-26T06:06:16.243Z,10
2016-02-26T06:07:16.418Z,10
2016-02-26T06:08:16.421Z,10
2016-02-26T06:09:16.424Z,15
2016-02-26T06:10:16.410Z,15
2016-02-26T06:11:16.398Z,15
2016-02-26T06:12:16.400Z,15
2016-02-26T06:13:16.387Z,15
2016-02-26T06:14:16.406Z,15
2016-02-26T06:15:16.377Z,15
2016-02-26T06:16:16.365Z,15
2016-02-26T06:17:16.367Z,15
2016-02-26T06:18:16.385Z,15
2016-02-26T06:19:16.372Z,15
2016-02-26T06:20:16.359Z,15
2016-02-26T06:21:16.361Z,15
2016-02-26T06:22:16.365Z,15
2016-02-26T06:23:16.351Z,20
2016-02-26T06:24:16.370Z,20
2016-02-26T06:25:16.356Z,25
2016-02-26T06:26:16.359Z,25
2016-02-26T06:27:16.362Z,30
2016-02-26T06:28:16.333Z,35
2016-02-26T06:29:16.353Z,30
2016-02-26T06:30:16.324Z,40
2016-02-26T06:31:16.342Z,45
2016-02-26T06:32:16.297Z,45
2016-02-26T06:33:16.316Z,50
2016-02-26T06:34:16.318Z,55
2016-02-26T06:35:16.322Z,55
2016-02-26T06:36:16.308Z,60
2016-02-26T06:37:16.296Z,60
2016-02-26T06:38:16.313Z,65
2016-02-26T06:39:16.285Z,70
2016-02-26T06:40:16.287Z,75
2016-02-26T06:41:16.275Z,75
2016-02-26T06:42:16.353Z,80
2016-02-26T06:43:16.276Z,80
2016-02-26T06:44:16.263Z,75
2016-02-26T06:45:16.266Z,70
2016-02-26T06:46:16.270Z,60
2016-02-26T06:47:16.256Z,60
2016-02-26T06:48:16.274Z,55
2016-02-26T06:49:16.277Z,55
2016-02-26T06:50:16.249Z,55
2016-02-26T06:51:16.252Z,55
2016-02-26T06:52:16.269Z,60
2016-02-26T06:53:16.241Z,60
2016-02-26T06:54:16.244Z,60
2016-02-26T06:55:16.231Z,60
2016-02-26T06:56:16.265Z,60
2016-02-26T06:57:16.220Z,60
2016-02-26T06:58:16.238Z,65
2016-02-26T06:59:16.226Z,65
2016-02-26T07:00:16.213Z,65
2016-02-26T07:01:16.232Z,65
2016-02-26T07:02:16.218Z,65
2016-02-26T07:03:16.221Z,70
2016-02-26T07:04:16.223Z,70
2016-02-26T07:05:16.210Z,70
2016-02-26T07:06:16.182Z,70
2016-02-26T07:07:16.216Z,70
2016-02-26T07:08:16.204Z,70
2016-02-26T07:09:16.175Z,70
2016-02-26T07:10:16.192Z,70
2016-02-26T07:11:16.211Z,70
2016-02-26T07:12:16.215Z,70
2016-02-26T07:13:16.186Z,70
2016-02-26T07:14:16.173Z,70
2016-02-26T07:15:16.175Z,75
2016-02-26T07:16:16.178Z,75
2016-02-26T07:17:16.164Z,80
2016-02-26T07:18:16.167Z,85
2016-02-26T07:19:16.169Z,85
2016-02-26T07:20:16.158Z,90
2016-02-26T07:21:16.176Z,95
2016-02-26T07:22:16.147Z,95
2016-02-26T07:23:16.150Z,100
2016-02-26T07:24:16.152Z,105
2016-02-26T07:25:16.140Z,110
2016-02-26T07:26:16.205Z,110
2016-02-26T07:27:16.145Z,110
2016-02-26T07:28:16.132Z,115
2016-02-26T07:29:16.135Z,120
2016-02-26T07:30:16.152Z,125
2016-02-26T07:31:16.124Z,135
2016-02-26T07:32:16.126Z,135
2016-02-26T07:33:16.161Z,145
2016-02-26T07:34:15.477Z,140
2016-02-26T07:35:16.120Z,140
2016-02-26T07:36:16.154Z,145
2016-02-26T07:37:16.093Z,150
2016-02-26T07:38:16.112Z,155
2016-02-26T07:39:16.115Z,165
2016-02-26T07:40:16.118Z,170
2016-02-26T07:41:16.120Z,175
2016-02-26T07:42:16.107Z,185
2016-02-26T07:43:16.125Z,190
2016-02-26T07:44:16.112Z,195
2016-02-26T07:45:16.083Z,190
2016-02-26T07:46:16.071Z,190
2016-02-26T07:47:16.074Z,190
2016-02-26T07:48:16.123Z,185
2016-02-26T07:49:16.064Z,185
2016-02-26T07:50:16.050Z,180
2016-02-26T07:51:16.147Z,180
2016-02-26T07:52:16.086Z,180
2016-02-26T07:53:17.903Z,180
2016-02-26T07:54:18.046Z,175
2016-02-26T07:55:16.611Z,175
2016-02-26T07:56:18.879Z,175
2016-02-26T07:57:17.538Z,175
2016-02-26T07:58:16.821Z,175
2016-02-26T07:59:16.716Z,165
2016-02-26T08:00:19.797Z,160
2016-02-26T08:01:16.846Z,160
2016-02-26T08:02:16.864Z,155
2016-02-26T08:03:16.570Z,150
2016-02-26T08:04:18.510Z,145
2016-02-26T08:05:17.543Z,150
2016-02-26T08:06:16.046Z,150
2016-02-26T08:07:16.034Z,145
2016-02-26T08:08:16.021Z,145
2016-02-26T08:09:16.040Z,140
2016-02-26T08:10:16.026Z,140
2016-02-26T08:11:16.029Z,145
2016-02-26T08:12:16.032Z,145
2016-02-26T08:13:16.018Z,155
2016-02-26T08:14:16.021Z,165
2016-02-26T08:15:16.024Z,170
2016-02-26T08:16:16.026Z,180
2016-02-26T08:17:16.029Z,200
2016-02-26T08:18:16.032Z,200
2016-02-26T08:19:16.003Z,195
2016-02-26T08:20:16.006Z,185
2016-02-26T08:21:15.853Z,185
2016-02-26T08:22:17.402Z,185
2016-02-26T08:23:16.967Z,190
2016-02-26T08:24:16.908Z,200
2016-02-26T08:25:17.692Z,210
2016-02-26T08:26:17.663Z,205
2016-02-26T08:27:17.994Z,205
2016-02-26T08:28:17.763Z,205
2016-02-26T08:29:17.655Z,205
2016-02-26T08:30:16.986Z,205
2016-02-26T08:31:16.302Z,215
2016-02-26T08:32:16.944Z,230
2016-02-26T08:33:17.182Z,235
2016-02-26T08:34:16.888Z,240
2016-02-26T08:35:17.562Z,245
2016-02-26T08:36:16.909Z,250
2016-02-26T08:37:16.865Z,245
2016-02-26T08:38:17.226Z,240
2016-02-26T08:39:16.713Z,235
2016-02-26T08:40:16.481Z,230
2016-02-26T08:41:16.093Z,225
2016-02-26T08:42:17.596Z,220
2016-02-26T08:43:18.365Z,220
2016-02-26T08:44:16.492Z,210
2016-02-26T08:45:18.309Z,200
2016-02-26T08:46:17.561Z,190
2016-02-26T08:47:18.564Z,185
2016-02-26T08:48:16.878Z,185
2016-02-26T08:49:17.037Z,190
2016-02-26T08:50:17.228Z,200
2016-02-26T08:51:19.370Z,210
2016-02-26T08:52:18.842Z,220
2016-02-26T08:53:19.580Z,225
2016-02-26T08:54:17.847Z,235
2016-02-26T08:55:18.053Z,245
2016-02-26T08:56:16.728Z,260
2016-02-26T08:57:17.231Z,275
2016-02-26T08:58:19.077Z,280
2016-02-26T08:59:19.299Z,290
2016-02-26T09:00:19.380Z,295
2016-02-26T09:01:15.929Z,300
2016-02-26T09:02:15.947Z,305
2016-02-26T09:03:15.935Z,315
2016-02-26T09:04:15.906Z,325
2016-02-26T09:05:15.612Z,330
2016-02-26T09:06:15.911Z,330
2016-02-26T09:07:15.930Z,335
2016-02-26T09:08:15.979Z,340
2016-02-26T09:09:15.904Z,345
2016-02-26T09:10:15.922Z,350
2016-02-26T09:11:15.924Z,350
2016-02-26T09:12:15.912Z,350
2016-02-26T09:13:15.915Z,340
2016-02-26T09:14:15.932Z,330
2016-02-26T09:15:16.154Z,330
2016-02-26T09:16:15.923Z,320
2016-02-26T09:17:15.910Z,305
2016-02-26T09:18:15.928Z,290
2016-02-26T09:19:15.900Z,290
2016-02-26T09:20:15.918Z,290
2016-02-26T09:21:15.905Z,290
2016-02-26T09:22:15.892Z,295
2016-02-26T09:23:15.816Z,295
2016-02-26T09:24:15.897Z,290
2016-02-26T09:25:31.728Z,280
2016-02-26T09:26:15.183Z,300
2016-02-26T09:27:15.889Z,310
2016-02-26T09:28:15.908Z,300
2016-02-26T09:29:15.973Z,320
2016-02-26T09:30:15.929Z,335
2016-02-26T09:31:15.916Z,340
2016-02-26T09:32:15.903Z,345
2016-02-26T09:33:15.937Z,335
2016-02-26T09:34:15.893Z,340
2016-02-26T09:35:15.896Z,340
2016-02-26T09:36:15.913Z,345
2016-02-26T09:37:15.932Z,350
2016-02-26T09:38:16.668Z,345
2016-02-26T09:39:29.985Z,335
2016-02-26T09:40:15.893Z,330
2016-02-26T09:41:16.084Z,330
2016-02-26T09:42:16.305Z,330
2016-02-26T09:43:16.417Z,330
2016-02-26T09:44:16.279Z,330
2016-02-26T09:45:16.500Z,320
2016-02-26T09:46:16.191Z,315
2016-02-26T09:47:16.303Z,310
2016-02-26T09:48:16.102Z,295
2016-02-26T09:49:16.230Z,285
2016-02-26T09:50:16.248Z,285
2016-02-26T09:51:16.204Z,285
2016-02-26T09:52:16.270Z,285
2016-02-26T09:53:16.507Z,285
2016-02-26T09:54:16.228Z,285
2016-02-26T09:55:16.512Z,290
2016-02-26T09:56:16.375Z,295
2016-02-26T09:57:16.408Z,300
2016-02-26T09:58:16.176Z,305
2016-02-26T09:59:15.991Z,300
2016-02-26T10:00:16.400Z,300
2016-02-26T10:01:16.513Z,290
2016-02-26T10:02:16.374Z,275
2016-02-26T10:03:15.580Z,260
2016-02-26T10:04:16.458Z,250
2016-02-26T10:05:16.304Z,235
2016-02-26T10:06:16.385Z,230
2016-02-26T10:07:16.466Z,220
2016-02-26T10:08:16.312Z,225
2016-02-26T10:09:16.315Z,235
2016-02-26T10:10:16.286Z,255
2016-02-26T10:11:16.383Z,275
2016-02-26T10:12:15.901Z,295
2016-02-26T10:13:15.920Z,300
2016-02-26T10:14:15.798Z,315
2016-02-26T10:15:15.910Z,325
2016-02-26T10:16:15.928Z,335
2016-02-26T10:17:15.928Z,345
2016-02-26T10:18:15.903Z,350
2016-02-26T10:19:15.877Z,350
2016-02-26T10:20:15.934Z,350
2016-02-26T10:21:15.862Z,350
2016-02-26T10:22:15.869Z,345
2016-02-26T10:23:15.868Z,335
2016-02-26T10:24:15.835Z,330
2016-02-26T10:25:15.847Z,325
2016-02-26T10:26:15.909Z,310
2016-02-26T10:27:15.830Z,305
2016-02-26T10:28:15.831Z,295
2016-02-26T10:29:15.847Z,285
2016-02-26T10:30:15.833Z,275
2016-02-26T10:31:15.834Z,275
2016-02-26T10:32:15.820Z,270
2016-02-26T10:33:15.822Z,265
2016-02-26T10:34:15.825Z,265
2016-02-26T10:35:15.842Z,250
2016-02-26T10:36:15.860Z,245
2016-02-26T10:37:15.847Z,240
2016-02-26T10:38:16.989Z,240
2016-02-26T10:39:15.819Z,245
2016-02-26T10:40:15.838Z,255
2016-02-26T10:41:15.824Z,270
2016-02-26T10:42:15.843Z,285
2016-02-26T10:43:15.830Z,310
2016-02-26T10:44:15.864Z,340
2016-02-26T10:45:15.898Z,375
2016-02-26T10:46:15.854Z,385
2016-02-26T10:47:15.825Z,390
2016-02-26T10:48:15.843Z,395
2016-02-26T10:49:15.878Z,395
2016-02-26T10:50:15.848Z,400
2016-02-26T10:51:15.837Z,395
2016-02-26T10:52:15.839Z,390
2016-02-26T10:53:15.842Z,390
2016-02-26T10:54:15.828Z,390
2016-02-26T10:55:15.847Z,400
2016-02-26T10:56:15.911Z,390
2016-02-26T10:57:15.852Z,385
2016-02-26T10:58:16.074Z,380
2016-02-26T10:59:15.873Z,380
2016-02-26T11:00:15.860Z,370
2016-02-26T11:01:15.832Z,360
2016-02-26T11:02:15.881Z,350
2016-02-26T11:03:15.868Z,330
2016-02-26T11:04:15.855Z,315
2016-02-26T11:05:15.858Z,305
2016-02-26T11:06:15.845Z,295
2016-02-26T11:07:15.879Z,290
2016-02-26T11:08:15.865Z,285
2016-02-26T11:09:15.854Z,280
2016-02-26T11:10:15.888Z,280
2016-02-26T11:11:16.234Z,275
2016-02-26T11:12:15.892Z,275
2016-02-26T11:13:15.724Z,275
2016-02-26T11:14:15.757Z,275
2016-02-26T11:15:15.885Z,280
2016-02-26T11:16:15.856Z,285
2016-02-26T11:17:15.859Z,295
2016-02-26T11:18:15.878Z,300
2016-02-26T11:19:15.864Z,310
2016-02-26T11:20:15.867Z,325
2016-02-26T11:21:15.901Z,340
2016-02-26T11:22:15.888Z,350
2016-02-26T11:23:15.875Z,360
2016-02-26T11:24:15.877Z,370
2016-02-26T11:25:27.317Z,385
2016-02-26T11:26:15.945Z,385
2016-02-26T11:27:15.948Z,385
2016-02-26T11:28:15.888Z,390
2016-02-26T11:29:17.392Z,385
2016-02-26T11:30:15.894Z,375
2016-02-26T11:31:15.959Z,370
2016-02-26T11:32:15.915Z,355
2016-02-26T11:33:15.886Z,330
2016-02-26T11:34:15.967Z,295
2016-02-26T11:35:15.985Z,265
2016-02-26T11:36:15.910Z,240
2016-02-26T11:37:15.913Z,225
2016-02-26T11:38:15.900Z,210
2016-02-26T11:39:16.528Z,205
2016-02-26T11:40:17.640Z,195
2016-02-26T11:41:15.892Z,190
2016-02-26T11:42:15.896Z,185
2016-02-26T11:43:15.929Z,185
2016-02-26T11:44:15.948Z,185
2016-02-26T11:45:15.903Z,195
2016-02-26T11:46:15.906Z,200
2016-02-26T11:47:15.924Z,210
2016-02-26T11:48:15.896Z,220
2016-02-26T11:49:15.914Z,225
2016-02-26T11:50:16.041Z,235
2016-02-26T11:51:15.904Z,245
2016-02-26T11:52:15.922Z,255
2016-02-26T11:53:15.940Z,255
2016-02-26T11:54:15.975Z,245
2016-02-26T11:55:16.118Z,235
2016-02-26T11:56:16.245Z,220
2016-02-26T11:57:15.951Z,215
2016-02-26T11:58:15.906Z,200
2016-02-26T11:59:15.925Z,190
2016-02-26T12:00:15.944Z,180
2016-02-26T12:01:15.930Z,180
2016-02-26T12:02:15.933Z,185
2016-02-26T12:03:15.936Z,190
2016-02-26T12:04:15.922Z,200
2016-02-26T12:05:15.769Z,210
2016-02-26T12:06:15.944Z,225
2016-02-26T12:07:15.213Z,235
2016-02-26T12:08:15.949Z,245
2016-02-26T12:09:15.936Z,250
2016-02-26T12:10:15.938Z,250
2016-02-26T12:11:15.941Z,250
2016-02-26T12:12:15.929Z,245
2016-02-26T12:13:16.056Z,230
2016-02-26T12:14:15.949Z,215
2016-02-26T12:15:15.952Z,200
2016-02-26T12:16:16.018Z,180
2016-02-26T12:17:16.020Z,165
2016-02-26T12:18:15.929Z,145
2016-02-26T12:19:15.948Z,140
2016-02-26T12:20:16.309Z,130
2016-02-26T12:21:15.953Z,130
2016-02-26T12:22:15.940Z,130
2016-02-26T12:23:15.942Z,130
2016-02-26T12:24:15.461Z,130
2016-02-26T12:25:15.808Z,130
2016-02-26T12:26:15.482Z,135
2016-02-26T12:27:15.938Z,145
2016-02-26T12:28:15.159Z,150
2016-02-26T12:29:15.959Z,160
2016-02-26T12:30:16.055Z,165
2016-02-26T12:31:15.933Z,175
2016-02-26T12:32:16.077Z,185
2016-02-26T12:33:15.939Z,190
2016-02-26T12:34:16.003Z,195
2016-02-26T12:35:15.975Z,210
2016-02-26T12:36:15.962Z,230
2016-02-26T12:37:15.996Z,255
2016-02-26T12:38:15.968Z,275
2016-02-26T12:39:15.955Z,295
2016-02-26T12:40:16.019Z,310
2016-02-26T12:41:15.976Z,315
2016-02-26T12:42:17.182Z,315
2016-02-26T12:43:16.091Z,310
2016-02-26T12:44:15.968Z,315
2016-02-26T12:45:16.080Z,320
2016-02-26T12:46:20.879Z,330
2016-02-26T12:47:16.538Z,335
2016-02-26T12:48:16.229Z,340
2016-02-26T12:49:16.512Z,355
2016-02-26T12:50:15.968Z,360
2016-02-26T12:51:15.971Z,370
2016-02-26T12:52:16.099Z,370
2016-02-26T12:53:16.008Z,370
2016-02-26T12:54:15.948Z,370
2016-02-26T12:55:15.967Z,365
2016-02-26T12:56:16.000Z,360
2016-02-26T12:57:17.690Z,360
2016-02-26T12:58:17.725Z,355
2016-02-26T12:59:17.883Z,350
2016-02-26T13:00:15.980Z,350
2016-02-26T13:01:16.858Z,345
2016-02-26T13:02:16.297Z,350
2016-02-26T13:03:16.223Z,350
2016-02-26T13:04:17.146Z,350
2016-02-26T13:05:15.993Z,350
2016-02-26T13:06:15.980Z,345
2016-02-26T13:07:16.030Z,340
2016-02-26T13:08:15.985Z,325
2016-02-26T13:09:15.988Z,315
2016-02-26T13:10:15.991Z,310
2016-02-26T13:11:15.993Z,305
2016-02-26T13:12:16.137Z,305
2016-02-26T13:13:19.046Z,310
2016-02-26T13:14:15.985Z,305
2016-02-26T13:15:16.051Z,305
2016-02-26T13:16:16.007Z,310
2016-02-26T13:17:15.526Z,305
2016-02-26T13:18:16.465Z,310
2016-02-26T13:19:16.188Z,310
2016-02-26T13:20:16.143Z,310
2016-02-26T13:21:16.551Z,310
2016-02-26T13:22:16.054Z,310
2016-02-26T13:23:16.353Z,315
2016-02-26T13:24:16.310Z,315
2016-02-26T13:25:15.844Z,320
2016-02-26T13:26:15.722Z,320
2016-02-26T13:27:16.255Z,315
2016-02-26T13:28:16.289Z,315
2016-02-26T13:29:16.277Z,315
2016-02-26T13:30:16.295Z,310
2016-02-26T13:31:16.360Z,305
2016-02-26T13:32:16.722Z,305
2016-02-26T13:33:16.084Z,305
2016-02-26T13:34:16.056Z,295
2016-02-26T13:35:17.075Z,295
2016-02-26T13:36:16.061Z,285
2016-02-26T13:37:16.267Z,280
2016-02-26T13:38:18.332Z,280
2016-02-26T13:39:16.428Z,275
2016-02-26T13:40:17.525Z,265
2016-02-26T13:41:16.059Z,265
2016-02-26T13:42:20.843Z,260
2016-02-26T13:43:16.080Z,250
2016-02-26T13:44:16.056Z,245
2016-02-26T13:45:16.059Z,245
2016-02-26T13:46:16.077Z,250
2016-02-26T13:47:16.080Z,255
2016-02-26T13:48:16.035Z,260
2016-02-26T13:49:16.101Z,260
2016-02-26T13:50:16.087Z,265
2016-02-26T13:51:16.075Z,260
2016-02-26T13:52:16.079Z,260
2016-02-26T13:53:16.065Z,255
2016-02-26T13:54:16.068Z,255
2016-02-26T13:55:16.102Z,250
2016-02-26T13:56:16.120Z,240
2016-02-26T13:57:16.060Z,235
2016-02-26T13:58:16.079Z,235
2016-02-26T13:59:16.050Z,230
2016-02-26T14:00:16.068Z,230
2016-02-26T14:01:17.790Z,225
2016-02-26T14:02:16.073Z,225
2016-02-26T14:03:16.108Z,230
2016-02-26T14:04:16.095Z,225
2016-02-26T14:05:16.097Z,225
2016-02-26T14:06:16.100Z,225
2016-02-26T14:07:16.087Z,225
2016-02-26T14:08:16.090Z,225
2016-02-26T14:09:16.077Z,230
2016-02-26T14:10:16.095Z,235
2016-02-26T14:11:16.114Z,230
2016-02-26T14:12:16.100Z,230
2016-02-26T14:13:16.088Z,230